Time;durP1;ratioP1;P1;durP2;ratioP2;P2;SDS_P1;SDS_P2;PMS_P1;PMS_P2;Temp;Humidity;BMP_temperature;BMP_pressure;BME280_temperature;BME280_humidity;BME280_pressure;Samples;Min_cycle;Max_cycle;Signal;HPM_P1;HPM_P2
2022/04/30 00:02:22;;;;;;;4.18;2.17;;;;;;;3.90;66.29;99982.81;4976235;28;20472;-65
2022/04/30 00:04:50;;;;;;;55.60;16.00;;;;;;;3.85;66.65;99982.81;4976122;28;20052;-64
2022/04/30 00:07:19;;;;;;;9.30;3.90;;;;;;;3.78;66.72;99983.09;4975827;28;20046;-64
2022/04/30 00:09:48;;;;;;;3.60;2.40;;;;;;;3.66;67.18;99980.63;4976087;28;20109;-66
2022/04/30 00:12:18;;;;;;;3.78;2.40;;;;;;;3.59;67.05;99984.78;4976335;28;20081;-64
2022/04/30 00:14:46;;;;;;;3.08;2.10;;;;;;;3.62;67.23;99984.22;4975864;28;20459;-65
2022/04/30 00:17:14;;;;;;;3.88;2.13;;;;;;;3.59;67.18;99991.09;4976082;28;20057;-64
2022/04/30 00:19:41;;;;;;;8.43;2.28;;;;;;;3.60;67.21;99990.00;4974218;28;20057;-65
2022/04/30 00:22:09;;;;;;;4.63;2.28;;;;;;;3.60;67.29;99992.75;4975345;28;20158;-65
2022/04/30 00:24:38;;;;;;;4.70;2.80;;;;;;;3.57;67.28;99992.47;4975550;28;20409;-64
2022/04/30 00:27:06;;;;;;;4.40;2.53;;;;;;;3.57;67.19;99992.47;4976027;28;20502;-65
2022/04/30 00:29:33;;;;;;;3.55;2.30;;;;;;;3.64;67.15;99993.00;4975613;28;20050;-64
2022/04/30 00:32:03;;;;;;;4.40;2.90;;;;;;;3.72;66.87;99995.19;4975361;28;20122;-64
2022/04/30 00:34:31;;;;;;;3.80;2.78;;;;;;;3.75;66.65;99998.22;4975527;28;20055;-64
2022/04/30 00:37:02;;;;;;;4.18;2.13;;;;;;;3.85;66.36;99997.41;4975288;28;20076;-64
2022/04/30 00:39:33;;;;;;;5.45;2.40;;;;;;;3.76;66.84;100002.63;4975333;28;20097;-64
2022/04/30 00:42:00;;;;;;;4.53;2.10;;;;;;;3.66;66.76;99999.06;4975531;28;20057;-65
2022/04/30 00:44:28;;;;;;;4.10;1.92;;;;;;;3.59;67.14;99991.09;4975665;28;20498;-65
2022/04/30 00:46:55;;;;;;;6.07;2.22;;;;;;;3.56;67.07;99999.09;4975601;28;20061;-64
2022/04/30 00:49:22;;;;;;;4.40;1.80;;;;;;;3.54;67.09;99995.78;4973851;28;20134;-64
2022/04/30 00:51:50;;;;;;;4.35;2.40;;;;;;;3.56;66.87;99999.09;4974901;28;20051;-64
2022/04/30 00:54:23;;;;;;;4.60;1.85;;;;;;;3.43;66.88;99997.69;4974808;28;20058;-65
2022/04/30 00:56:58;;;;;;;6.80;2.35;;;;;;;3.46;67.25;99993.56;4975420;28;20482;-64
2022/04/30 00:59:27;;;;;;;4.03;2.22;;;;;;;3.39;66.82;99996.59;4974956;28;20046;-65
2022/04/30 01:01:59;;;;;;;8.63;2.40;;;;;;;3.34;66.86;99998.50;4975319;28;20387;-64
2022/04/30 01:04:27;;;;;;;4.25;2.00;;;;;;;3.28;67.02;100000.44;4974985;28;20047;-65
2022/04/30 01:07:06;;;;;;;3.47;2.58;;;;;;;3.28;66.87;100000.44;4975075;28;20055;-65
2022/04/30 01:09:38;;;;;;;;;;;;;;;3.26;67.02;100005.38;4974275;28;20125;-64
2022/04/30 01:12:11;;;;;;;9.88;2.30;;;;;;;3.27;66.79;100003.47;4975118;28;19984;-64
2022/04/30 01:14:40;;;;;;;3.35;1.83;;;;;;;3.35;66.65;100001.00;4957662;28;20054;-65
2022/04/30 01:17:10;;;;;;;3.97;2.03;;;;;;;3.29;66.55;100001.28;4974749;28;20133;-65
2022/04/30 01:19:43;;;;;;;2.67;1.40;;;;;;;3.24;66.72;99995.78;4973912;28;20536;-65
2022/04/30 01:22:27;;;;;;;3.28;1.95;;;;;;;3.23;66.59;100005.13;4975138;28;20061;-64
2022/04/30 01:24:56;;;;;;;3.28;1.73;;;;;;;3.07;67.13;100006.19;4974739;28;20395;-64
2022/04/30 01:27:27;;;;;;;3.33;2.03;;;;;;;3.00;67.35;100005.63;4974129;28;20050;-65
2022/04/30 01:30:04;;;;;;;3.70;1.90;;;;;;;2.98;66.87;100000.41;4973582;28;20137;-65
2022/04/30 01:38:15;;;;;;;4.43;1.75;;;;;;;3.25;66.56;100012.00;4973065;28;20341;-64
2022/04/30 01:40:46;;;;;;;4.88;2.22;;;;;;;3.18;66.48;99983.13;4973585;28;20081;-72
2022/04/30 01:43:15;;;;;;;10.35;2.35;;;;;;;3.34;66.29;100009.50;4974800;28;20077;-73
2022/04/30 01:45:44;;;;;;;4.60;2.35;;;;;;;3.32;66.18;99997.97;4973781;28;20077;-71
2022/04/30 01:48:14;;;;;;;4.35;2.30;;;;;;;3.36;66.29;100015.56;4974331;28;20057;-73
2022/04/30 01:50:45;;;;;;;3.08;1.88;;;;;;;3.38;66.09;100008.69;4974199;28;20085;-73
2022/04/30 01:53:12;;;;;;;3.53;2.30;;;;;;;3.47;65.98;100014.47;4973455;28;20089;-72
2022/04/30 01:55:39;;;;;;;6.22;2.30;;;;;;;3.50;66.04;100011.19;4974145;28;20078;-72
2022/04/30 01:58:07;;;;;;;4.88;1.85;;;;;;;3.48;65.87;100010.63;4974480;28;20077;-72
2022/04/30 02:00:38;;;;;;;3.05;2.03;;;;;;;3.41;66.09;100015.59;4973092;28;20054;-72
2022/04/30 02:03:08;;;;;;;4.00;2.25;;;;;;;3.39;65.85;100012.28;4974077;28;20082;-72
2022/04/30 02:05:41;;;;;;;3.58;2.10;;;;;;;3.40;65.75;100008.41;4973194;28;20146;-72
2022/04/30 02:08:14;;;;;;;4.07;2.17;;;;;;;3.39;65.94;100017.78;4974371;28;20141;-72
2022/04/30 02:10:42;;;;;;;5.78;1.88;;;;;;;3.35;65.89;100022.97;4974226;28;20051;-73
2022/04/30 02:13:10;;;;;;;3.83;2.20;;;;;;;3.35;65.72;100019.44;4974136;28;20078;-73
2022/04/30 02:15:41;;;;;;;4.57;2.08;;;;;;;3.45;65.49;100016.69;4973228;28;20078;-72
2022/04/30 02:18:14;;;;;;;6.22;1.98;;;;;;;3.45;65.58;100016.69;4972968;28;20414;-73
2022/04/30 02:20:45;;;;;;;5.93;2.15;;;;;;;3.51;65.51;100005.41;4973506;28;20051;-73
2022/04/30 02:23:14;;;;;;;3.95;1.77;;;;;;;3.47;65.39;100015.28;4972734;28;20061;-73
2022/04/30 02:25:42;;;;;;;3.72;1.77;;;;;;;3.44;65.67;100020.53;4974040;28;20051;-73
2022/04/30 02:28:09;;;;;;;6.15;1.92;;;;;;;3.44;65.58;100028.78;4973633;28;20421;-72
2022/04/30 02:30:38;;;;;;;2.38;1.58;;;;;;;3.41;65.51;100021.09;4973662;28;20050;-72
2022/04/30 02:33:10;;;;;;;2.70;1.73;;;;;;;3.48;65.39;100029.88;4972456;28;20057;-72
2022/04/30 02:35:40;;;;;;;3.15;1.70;;;;;;;3.45;65.22;100013.94;4957449;28;20070;-72
2022/04/30 02:38:08;;;;;;;2.92;1.70;;;;;;;3.41;65.09;100027.38;4973662;28;20051;-72
2022/04/30 02:40:37;;;;;;;3.95;1.60;;;;;;;3.44;64.96;100032.34;4956309;28;20058;-71
2022/04/30 02:43:10;;;;;;;4.28;1.92;;;;;;;3.49;64.93;100045.25;4973575;28;20089;-72
2022/04/30 02:45:39;;;;;;;4.07;1.88;;;;;;;3.51;64.94;100030.16;4975410;28;20105;-72
2022/04/30 02:48:07;;;;;;;3.30;1.60;;;;;;;3.52;64.44;100042.81;4977638;28;20053;-73
2022/04/30 02:50:35;;;;;;;2.42;1.60;;;;;;;3.52;64.60;100045.56;4977618;28;20070;-73
2022/04/30 02:53:03;;;;;;;2.55;1.67;;;;;;;3.45;64.49;100045.00;4976041;28;20055;-72
2022/04/30 02:55:30;;;;;;;2.85;1.60;;;;;;;3.40;64.75;100058.75;4976937;28;20149;-72
2022/04/30 03:00:48;;;;;;;3.53;2.03;;;;;;;3.52;64.54;100053.81;4977063;28;20102;-73
2022/04/30 03:03:16;;;;;;;3.28;1.83;;;;;;;3.59;64.20;100059.03;4977063;28;20629;-72
2022/04/30 03:05:45;;;;;;;2.90;1.67;;;;;;;3.49;64.30;100051.59;4977176;28;20051;-73
2022/04/30 03:08:23;;;;;;;1.70;1.27;;;;;;;3.44;64.45;100048.03;4977096;28;20055;-72
2022/04/30 03:10:54;;;;;;;3.28;1.85;;;;;;;3.33;64.69;100057.34;4976307;28;20053;-72
2022/04/30 03:13:23;;;;;;;2.95;1.25;;;;;;;3.31;64.29;100056.78;4975740;28;20419;-73
2022/04/30 03:15:52;;;;;;;2.90;1.65;;;;;;;3.41;64.01;100059.56;4977357;28;20055;-72
2022/04/30 03:23:40;;;;;;;6.18;1.42;;;;;;;3.36;63.54;100071.41;4976134;28;20058;-73
2022/04/30 03:26:09;;;;;;;7.38;2.20;;;;;;;3.58;63.13;100066.47;4977236;28;20051;-73
2022/04/30 03:28:40;;;;;;;2.83;1.80;;;;;;;4.05;61.95;100060.66;4976747;28;20076;-72
2022/04/30 03:31:10;;;;;;;9.15;2.50;;;;;;;4.02;62.00;100066.72;4976061;28;20053;-72
2022/04/30 03:33:38;;;;;;;2.95;1.52;;;;;;;4.00;61.85;100063.44;4959286;28;20051;-72
2022/04/30 03:36:06;;;;;;;2.70;1.60;;;;;;;3.87;61.87;100068.66;4977556;28;20050;-72
2022/04/30 03:38:33;;;;;;;2.95;1.67;;;;;;;3.75;62.07;100071.69;4977238;28;20073;-73
2022/04/30 03:41:00;;;;;;;2.53;1.40;;;;;;;3.71;61.92;100070.59;4976977;28;20062;-72
2022/04/30 03:43:27;;;;;;;2.45;1.65;;;;;;;3.74;62.02;100081.06;4976471;28;20058;-73
2022/04/30 03:45:54;;;;;;;2.30;1.48;;;;;;;3.97;61.75;100074.16;4976581;28;20405;-72
2022/04/30 03:48:21;;;;;;;2.25;1.70;;;;;;;4.13;61.40;100084.88;4976655;28;20146;-73
2022/04/30 03:50:48;;;;;;;2.60;1.65;;;;;;;4.13;61.31;100079.38;4976628;28;20050;-72
2022/04/30 03:53:15;;;;;;;2.75;1.60;;;;;;;4.26;60.96;100076.03;4974947;28;20425;-73
2022/04/30 03:55:43;;;;;;;3.22;1.90;;;;;;;4.34;60.60;100078.22;4975272;28;20066;-72
2022/04/30 03:58:10;;;;;;;7.85;1.67;;;;;;;4.40;60.41;100084.53;4976057;28;20425;-73
2022/04/30 04:00:37;;;;;;;7.35;1.85;;;;;;;4.45;60.09;100082.63;4974909;28;20050;-72
2022/04/30 04:03:04;;;;;;;2.85;1.45;;;;;;;4.22;60.67;100076.88;4974547;28;20929;-73
2022/04/30 04:05:32;;;;;;;2.67;1.60;;;;;;;4.23;60.50;100084.84;4976140;28;20056;-73
2022/04/30 04:08:00;;;;;;;3.58;1.70;;;;;;;4.19;60.55;100086.50;4974636;28;20453;-72
2022/04/30 04:10:29;;;;;;;2.90;1.52;;;;;;;4.08;60.64;100079.38;4958743;28;20054;-73
2022/04/30 04:17:37;;;;;;;4.35;2.10;;;;;;;4.13;60.79;100095.06;4976271;28;20134;-73
2022/04/30 04:18:31;;;;;;;2.60;1.33;;;;;;;4.27;59.97;100093.38;4975798;28;20102;-73
2022/04/30 04:20:59;;;;;;;2.28;1.30;;;;;;;4.36;60.13;100098.06;4975980;28;20042;-73
2022/04/30 04:23:26;;;;;;;2.83;1.42;;;;;;;4.40;59.63;100096.38;4975651;28;20422;-73
2022/04/30 04:26:00;;;;;;;2.17;1.42;;;;;;;4.47;59.59;100096.91;4975967;28;20050;-74
2022/04/30 04:28:28;;;;;;;2.83;1.40;;;;;;;4.48;59.78;100108.75;4975602;28;20105;-73
2022/04/30 04:30:57;;;;;;;2.50;1.42;;;;;;;4.37;59.68;100109.88;4975824;28;20047;-72
2022/04/30 04:33:28;;;;;;;4.38;1.80;;;;;;;4.29;59.73;100115.97;4975141;28;20064;-73
2022/04/30 04:35:58;;;;;;;3.30;1.70;;;;;;;4.30;59.96;100118.44;4975751;28;20061;-72
2022/04/30 04:38:24;;;;;;;2.95;1.52;;;;;;;4.34;59.88;100108.50;4975460;28;20528;-72
2022/04/30 04:40:51;;;;;;;4.22;1.75;;;;;;;4.37;59.91;100116.22;4975420;28;20055;-71
2022/04/30 04:43:18;;;;;;;3.40;1.88;;;;;;;4.52;59.52;100124.44;4975247;28;20056;-71
2022/04/30 04:45:46;;;;;;;2.83;1.70;;;;;;;4.69;59.22;100122.22;4975525;28;20057;-71
2022/04/30 04:48:16;;;;;;;3.50;2.00;;;;;;;4.82;58.75;100124.38;4976226;28;20058;-71
2022/04/30 04:50:43;;;;;;;3.05;1.95;;;;;;;4.86;58.63;100133.72;4975385;28;20050;-72
2022/04/30 04:53:12;;;;;;;3.38;1.58;;;;;;;4.89;58.61;100127.63;4975329;28;20074;-71
2022/04/30 04:55:39;;;;;;;2.63;1.67;;;;;;;5.05;58.24;100131.16;4974959;28;20157;-71
2022/04/30 04:58:06;;;;;;;3.28;2.00;;;;;;;4.88;58.75;100130.69;4975231;28;20055;-72
2022/04/30 05:00:35;;;;;;;5.88;2.25;;;;;;;4.77;59.14;100124.38;4975176;28;20058;-71
2022/04/30 05:03:02;;;;;;;4.28;1.83;;;;;;;4.87;58.75;100135.38;4975205;28;20053;-71
2022/04/30 05:05:29;;;;;;;3.20;1.70;;;;;;;5.14;57.97;100135.81;4974899;28;20110;-71
2022/04/30 05:07:56;;;;;;;3.40;1.85;;;;;;;5.32;57.60;100137.09;4975262;28;20065;-72
2022/04/30 05:10:23;;;;;;;4.15;1.65;;;;;;;5.25;57.47;100131.09;4974761;28;20145;-72
2022/04/30 05:12:50;;;;;;;5.47;1.70;;;;;;;5.32;57.37;100131.59;4974995;28;20149;-71
2022/04/30 05:15:17;;;;;;;4.95;2.10;;;;;;;5.38;56.89;100139.56;4974915;28;20506;-71
2022/04/30 05:17:45;;;;;;;3.00;2.13;;;;;;;5.59;56.66;100132.81;4973872;28;20066;-71
2022/04/30 05:20:12;;;;;;;5.40;2.20;;;;;;;5.68;56.71;100141.28;4974387;28;20055;-72
2022/04/30 05:22:59;;;;;;;3.50;1.85;;;;;;;5.81;56.81;100135.16;4974787;28;20050;-71
2022/04/30 05:25:26;;;;;;;5.55;2.28;;;;;;;5.88;56.99;100134.84;4974737;28;20422;-72
2022/04/30 05:27:53;;;;;;;7.57;2.15;;;;;;;6.29;55.82;100136.16;4974789;28;20051;-71
2022/04/30 05:30:21;;;;;;;5.50;2.17;;;;;;;6.42;55.34;100138.25;4957108;28;20510;-71
2022/04/30 05:32:55;;;;;;;5.25;2.00;;;;;;;6.37;55.17;100130.00;4973400;28;20137;-71
2022/04/30 05:35:22;;;;;;;6.32;2.50;;;;;;;6.49;54.77;100134.03;4974612;28;20091;-72
2022/04/30 05:37:50;;;;;;;3.55;1.85;;;;;;;6.72;53.92;100137.94;4973717;28;20053;-72
2022/04/30 05:40:18;;;;;;;4.35;2.40;;;;;;;7.07;53.96;100138.34;4974138;28;20047;-72
2022/04/30 05:42:45;;;;;;;8.50;2.40;;;;;;;7.98;52.85;100137.91;4974548;28;20051;-71
2022/04/30 05:45:12;;;;;;;3.92;1.65;;;;;;;9.17;51.03;100127.69;4974372;28;20162;-72
2022/04/30 05:47:39;;;;;;;4.60;1.88;;;;;;;11.03;47.56;100132.28;4972839;28;20521;-71
2022/04/30 05:50:10;;;;;;;5.38;1.85;;;;;;;13.76;41.22;100120.78;4972949;28;20051;-72
2022/04/30 05:52:37;;;;;;;2.42;1.83;;;;;;;14.88;37.81;100125.06;4974581;28;20141;-72
2022/04/30 05:55:05;;;;;;;2.90;1.25;;;;;;;15.61;35.09;100125.97;4974442;28;20076;-72
2022/04/30 05:57:32;;;;;;;5.65;1.70;;;;;;;15.18;35.43;100129.31;4974352;28;20257;-72
2022/04/30 06:00:00;;;;;;;3.00;1.77;;;;;;;14.45;35.61;100131.09;4972975;28;20053;-72
2022/04/30 06:02:27;;;;;;;4.80;1.48;;;;;;;14.31;36.28;100121.38;4973987;28;20047;-71
2022/04/30 06:04:55;;;;;;;2.58;1.73;;;;;;;14.94;35.34;100118.06;4974177;28;20046;-65
2022/04/30 06:07:22;;;;;;;2.88;1.58;;;;;;;15.92;33.42;100131.75;4974158;28;20597;-65
2022/04/30 06:09:49;;;;;;;2.83;1.33;;;;;;;16.05;32.73;100134.16;4973992;28;20051;-65
2022/04/30 06:12:16;;;;;;;3.42;1.60;;;;;;;16.50;31.23;100124.69;4974065;28;20113;-65
2022/04/30 06:14:43;;;;;;;3.08;1.33;;;;;;;17.39;29.51;100112.66;4973991;28;20078;-66
2022/04/30 06:17:11;;;;;;;3.60;1.05;;;;;;;16.96;28.96;100115.56;4974009;28;20109;-66
2022/04/30 06:19:38;;;;;;;3.60;1.27;;;;;;;17.62;28.62;100122.09;4973190;28;20065;-66
2022/04/30 06:22:05;;;;;;;2.70;1.70;;;;;;;16.48;29.36;100113.81;4973616;28;20414;-66
2022/04/30 06:24:32;;;;;;;9.38;1.88;;;;;;;13.48;33.90;100130.84;4973677;28;20046;-66
2022/04/30 06:26:59;;;;;;;4.50;1.40;;;;;;;11.52;36.54;100134.72;4973639;28;20043;-65
2022/04/30 06:29:26;;;;;;;118.75;46.72;;;;;;;10.69;38.11;100134.91;4973794;28;20432;-65
2022/04/30 06:31:55;;;;;;;13.18;6.28;;;;;;;9.85;39.85;100124.78;4973846;28;20498;-66
2022/04/30 06:34:22;;;;;;;3.70;1.92;;;;;;;9.20;40.08;100133.44;4973568;28;20067;-66
2022/04/30 06:36:49;;;;;;;2.35;1.55;;;;;;;10.57;37.59;100134.69;4974005;28;20412;-66
2022/04/30 06:39:16;;;;;;;1.95;1.20;;;;;;;14.03;31.73;100114.66;4973549;28;20057;-67
2022/04/30 06:41:43;;;;;;;2.88;1.10;;;;;;;18.06;26.40;100112.28;4973729;28;20179;-66
2022/04/30 06:44:10;;;;;;;2.60;1.10;;;;;;;19.59;24.09;100110.84;4973570;28;20068;-65
2022/04/30 06:46:37;;;;;;;2.67;1.17;;;;;;;19.40;24.64;100119.44;4973724;28;20593;-67
2022/04/30 06:49:04;;;;;;;2.50;1.05;;;;;;;19.02;24.41;100125.16;4973536;28;20050;-66
2022/04/30 06:51:31;;;;;;;4.60;1.00;;;;;;;15.63;27.07;100123.63;4973277;28;20163;-65
2022/04/30 06:59:31;;;;;;;167.70;57.35;;;;;;;10.41;33.52;100130.63;4973547;28;20047;-66
2022/04/30 07:02:01;;;;;;;3.60;1.95;;;;;;;9.77;34.28;100131.91;4973445;28;20129;-66
2022/04/30 07:04:32;;;;;;;1.90;0.90;;;;;;;9.59;34.28;100135.66;4973510;28;20055;-66
2022/04/30 07:07:00;;;;;;;2.03;1.17;;;;;;;11.91;30.57;100123.53;4972340;28;20052;-67
2022/04/30 07:09:32;;;;;;;10.50;1.45;;;;;;;15.49;26.30;100125.97;4973413;28;20047;-67
2022/04/30 07:12:06;;;;;;;1.60;1.00;;;;;;;17.51;23.11;100126.66;4973806;28;20129;-65
2022/04/30 07:14:36;;;;;;;1.52;0.90;;;;;;;19.36;21.76;100124.16;4973402;28;20150;-66
2022/04/30 07:17:07;;;;;;;1.77;0.70;;;;;;;18.28;22.00;100122.81;4973321;28;20514;-65
2022/04/30 07:19:34;;;;;;;1.38;0.70;;;;;;;15.57;24.11;100116.63;4973045;28;20518;-66
2022/04/30 07:22:02;;;;;;;2.03;0.73;;;;;;;13.55;26.28;100131.13;4973304;28;20058;-66
2022/04/30 07:24:33;;;;;;;4.85;0.95;;;;;;;12.37;27.80;100123.66;4971798;28;20509;-66
2022/04/30 07:27:01;;;;;;;2.42;1.30;;;;;;;12.51;27.72;100118.72;4973664;28;20061;-66
2022/04/30 07:29:28;;;;;;;1.23;0.82;;;;;;;16.28;22.49;100117.59;4973335;28;20046;-66
2022/04/30 07:31:55;;;;;;;2.30;1.05;;;;;;;19.15;20.30;100111.66;4974976;28;20520;-65
2022/04/30 07:34:23;;;;;;;1.42;0.75;;;;;;;17.35;21.32;100117.38;4975279;28;20051;-66
2022/04/30 07:36:50;;;;;;;6.55;1.20;;;;;;;14.54;23.88;100114.25;4976632;28;20058;-66
2022/04/30 07:39:16;;;;;;;1.88;0.80;;;;;;;12.77;25.76;100127.03;4976297;28;20055;-67
2022/04/30 07:41:49;;;;;;;1.40;1.00;;;;;;;11.64;27.21;100136.94;4976487;28;20506;-66
2022/04/30 07:44:16;;;;;;;17.30;1.65;;;;;;;10.92;27.48;100125.34;4976387;28;20060;-68
2022/04/30 07:46:43;;;;;;;2.92;1.40;;;;;;;12.66;26.61;100123.78;4976592;28;20069;-65
2022/04/30 07:49:11;;;;;;;1.50;0.75;;;;;;;15.94;22.52;100121.81;4976417;28;20470;-66
2022/04/30 07:51:53;;;;;;;2.08;1.10;;;;;;;20.01;18.87;100118.34;4976209;28;20457;-66
2022/04/30 07:54:20;;;;;;;53.55;17.75;;;;;;;25.36;15.25;100108.72;4976117;28;20058;-67
2022/04/30 07:56:51;;;;;;;5.00;1.73;;;;;;;28.97;12.93;100108.34;4976110;28;20046;-67
2022/04/30 07:59:18;;;;;;;1.52;1.05;;;;;;;31.39;11.08;100101.81;4975947;28;20061;-66
2022/04/30 08:01:45;;;;;;;1.83;0.70;;;;;;;29.89;11.47;100108.59;4975656;28;20046;-66
2022/04/30 08:04:12;;;;;;;8.75;1.00;;;;;;;24.62;14.07;100104.25;4976114;28;20042;-65
2022/04/30 08:06:39;;;;;;;3.78;0.88;;;;;;;19.95;17.63;100113.03;4976361;28;20061;-66
2022/04/30 08:09:06;;;;;;;3.58;0.70;;;;;;;16.94;20.22;100107.50;4975992;28;20438;-66
2022/04/30 08:11:33;;;;;;;1.75;0.80;;;;;;;14.77;22.15;100107.06;4975771;28;20061;-66
2022/04/30 08:14:00;;;;;;;4.28;1.10;;;;;;;13.24;23.65;100111.91;4976053;28;20050;-67
2022/04/30 08:16:28;;;;;;;5.63;1.10;;;;;;;12.33;24.56;100105.94;4975736;28;20149;-67
2022/04/30 08:18:57;;;;;;;10.00;1.25;;;;;;;11.57;25.19;100117.88;4975778;28;20042;-65
2022/04/30 08:21:25;;;;;;;3.45;0.90;;;;;;;10.97;26.17;100122.44;4975822;28;20141;-65
2022/04/30 08:23:52;;;;;;;2.10;1.52;;;;;;;12.91;24.50;100110.88;4975892;28;20050;-67
2022/04/30 08:26:19;;;;;;;2.80;1.00;;;;;;;15.75;21.17;100104.78;4975757;28;20054;-67
2022/04/30 08:28:46;;;;;;;4.43;1.00;;;;;;;14.06;22.46;100111.19;4974700;28;20051;-66
2022/04/30 08:31:13;;;;;;;2.03;1.10;;;;;;;12.56;23.97;100107.34;4975689;28;20047;-66
2022/04/30 08:33:40;;;;;;;13.70;5.18;;;;;;;11.38;25.60;100122.91;4974450;28;20153;-68
2022/04/30 08:36:07;;;;;;;14.15;2.28;;;;;;;10.55;26.14;100117.47;4975331;28;20537;-66
2022/04/30 08:38:34;;;;;;;2.83;1.13;;;;;;;9.71;27.71;100127.59;4974310;28;20530;-66
2022/04/30 08:41:01;;;;;;;1.40;0.75;;;;;;;9.09;28.68;100125.66;4975695;28;20051;-66
2022/04/30 08:43:30;;;;;;;2.53;0.88;;;;;;;8.88;29.50;100128.00;4974965;28;20145;-66
2022/04/30 08:45:59;;;;;;;2.70;0.90;;;;;;;8.97;29.59;100122.53;4975768;28;20058;-66
2022/04/30 08:48:29;;;;;;;3.87;1.77;;;;;;;9.81;28.49;100127.38;4975311;28;20055;-66
2022/04/30 08:50:56;;;;;;;2.03;0.90;;;;;;;10.74;27.54;100118.06;4975286;28;20785;-66
2022/04/30 08:53:23;;;;;;;2.67;1.30;;;;;;;13.85;24.12;100114.00;4975973;28;20081;-67
2022/04/30 08:55:50;;;;;;;11.02;3.08;;;;;;;16.86;21.40;100110.44;4974809;28;20070;-66
2022/04/30 08:58:17;;;;;;;3.13;1.42;;;;;;;21.08;17.67;100108.84;4975085;28;20053;-66
2022/04/30 09:00:47;;;;;;;4.40;1.13;;;;;;;25.52;14.46;100089.09;4975075;28;20521;-66
2022/04/30 09:03:18;;;;;;;;;;;;;;;27.78;13.41;100092.31;4975641;28;20498;-66
2022/04/30 09:05:48;;;;;;;1.67;1.08;;;;;;;30.25;12.14;100078.97;4975037;28;20329;-66
2022/04/30 09:08:16;;;;;;;2.47;1.10;;;;;;;32.48;10.54;100090.19;4973390;28;20060;-66
2022/04/30 09:10:44;;;;;;;1.92;1.02;;;;;;;33.88;9.03;100091.63;4975238;28;20501;-67
2022/04/30 09:13:16;;;;;;;2.97;0.83;;;;;;;29.42;11.19;100101.56;4974877;28;20449;-66
2022/04/30 09:15:45;;;;;;;1.70;0.80;;;;;;;23.75;15.04;100098.78;4974929;28;20290;-66
2022/04/30 09:18:13;;;;;;;;;;;;;;;20.23;17.98;100089.22;4958613;28;20061;-67
2022/04/30 09:20:51;;;;;;;2.20;0.65;;;;;;;18.19;18.67;100088.41;4973566;28;20440;-66
2022/04/30 09:23:30;;;;;;;3.03;0.73;;;;;;;16.39;19.63;100087.84;4973307;28;20054;-66
2022/04/30 09:25:59;;;;;;;6.05;0.85;;;;;;;15.27;20.38;100085.16;4974740;28;20051;-66
2022/04/30 09:28:31;;;;;;;2.87;0.97;;;;;;;14.18;21.57;100100.06;4974664;28;20061;-66
2022/04/30 09:31:05;;;;;;;2.67;0.80;;;;;;;13.15;22.19;100099.16;4974900;28;20309;-67
2022/04/30 09:33:37;;;;;;;4.28;0.90;;;;;;;12.49;22.51;100087.53;4957710;28;20050;-66
2022/04/30 09:38:54;;;;;;;3.88;1.00;;;;;;;11.34;23.80;100090.47;4974381;28;20054;-66
2022/04/30 09:41:23;;;;;;;4.05;1.10;;;;;;;11.18;24.47;100090.09;4974343;28;20129;-67
2022/04/30 09:44:07;;;;;;;3.30;1.17;;;;;;;11.63;23.66;100099.06;4974015;28;20101;-66
2022/04/30 09:46:39;;;;;;;1.63;1.00;;;;;;;12.16;23.81;100089.22;4973979;28;20161;-66
2022/04/30 09:54:42;;;;;;;1.58;0.90;;;;;;;11.83;24.01;100078.91;4973152;28;20086;-67
2022/04/30 09:57:10;;;;;;;6.28;0.98;;;;;;;11.27;24.28;100082.56;4974202;28;20414;-66
2022/04/30 09:59:39;;;;;;;2.58;1.10;;;;;;;11.31;24.95;100083.56;4974089;28;20133;-66
2022/04/30 10:02:09;;;;;;;1.95;1.13;;;;;;;11.48;24.50;100088.34;4973595;28;20043;-67
2022/04/30 10:04:37;;;;;;;2.13;0.95;;;;;;;11.65;24.05;100083.66;4973998;28;20051;-68
2022/04/30 10:07:06;;;;;;;9.40;4.35;;;;;;;11.85;24.39;100066.28;4973798;28;20081;-66
2022/04/30 10:09:48;;;;;;;1.75;1.05;;;;;;;11.81;24.29;100087.59;4974060;28;20058;-66
2022/04/30 10:12:33;;;;;;;1.88;0.90;;;;;;;11.77;24.55;100075.47;4972811;28;20433;-66
2022/04/30 10:15:04;;;;;;;2.97;1.00;;;;;;;11.51;24.73;100079.31;4973976;28;20078;-70
2022/04/30 10:17:33;;;;;;;2.35;0.90;;;;;;;11.14;25.17;100072.41;4973689;28;20077;-67
2022/04/30 10:20:12;;;;;;;4.80;1.10;;;;;;;10.97;25.57;100089.03;4973665;28;20413;-66
2022/04/30 10:22:50;;;;;;;4.22;1.05;;;;;;;10.84;25.71;100078.84;4973913;28;20039;-66
2022/04/30 10:25:18;;;;;;;1.98;1.30;;;;;;;10.66;25.87;100086.28;4974107;28;20047;-66
2022/04/30 10:27:47;;;;;;;6.50;0.98;;;;;;;10.83;25.76;100085.53;4973554;28;20065;-67
2022/04/30 10:30:19;;;;;;;3.85;1.00;;;;;;;10.86;25.99;100088.50;4973822;28;20138;-67
2022/04/30 10:33:06;;;;;;;2.28;1.08;;;;;;;10.63;26.42;100088.91;4973743;28;20097;-66
2022/04/30 10:35:38;;;;;;;2.35;0.98;;;;;;;10.34;26.25;100078.28;4973486;28;20150;-66
2022/04/30 10:38:14;;;;;;;4.10;1.30;;;;;;;10.21;26.77;100075.53;4973697;28;20061;-67
2022/04/30 10:40:49;;;;;;;3.67;1.20;;;;;;;10.15;26.91;100074.03;4973574;28;20046;-66
2022/04/30 10:43:34;;;;;;;2.53;1.00;;;;;;;10.43;26.89;100078.31;4974036;28;20081;-65
2022/04/30 10:46:17;;;;;;;3.70;1.00;;;;;;;10.72;26.69;100062.72;4973776;28;20142;-67
2022/04/30 10:48:44;;;;;;;3.58;1.05;;;;;;;10.86;26.35;100082.09;4973635;28;20047;-66
2022/04/30 10:51:13;;;;;;;4.72;1.10;;;;;;;10.94;26.13;100062.69;4972273;28;20058;-67
2022/04/30 10:53:45;;;;;;;3.13;1.03;;;;;;;10.89;25.77;100071.16;4973503;28;20051;-67
2022/04/30 10:56:15;;;;;;;1.98;1.13;;;;;;;10.86;26.57;100065.41;4973551;28;20431;-67
2022/04/30 10:58:42;;;;;;;1.88;1.00;;;;;;;10.72;26.17;100061.94;4973782;28;20047;-66
2022/04/30 11:01:17;;;;;;;2.35;0.80;;;;;;;10.64;26.37;100062.72;4973752;28;20046;-66
2022/04/30 11:03:46;;;;;;;1.23;0.80;;;;;;;10.60;26.79;100070.06;4971814;28;20143;-66
2022/04/30 11:06:25;;;;;;;2.47;1.00;;;;;;;10.60;27.02;100065.28;4975870;28;20137;-67
2022/04/30 11:09:04;;;;;;;6.90;1.00;;;;;;;10.52;26.35;100065.28;4977208;28;20055;-67
2022/04/30 11:11:32;;;;;;;2.67;0.93;;;;;;;10.56;26.46;100061.53;4977242;28;20409;-66
2022/04/30 11:14:07;;;;;;;1.88;1.13;;;;;;;10.44;26.61;100068.81;4977114;28;20058;-66
2022/04/30 11:16:44;;;;;;;1.27;0.73;;;;;;;10.17;27.49;100068.97;4977041;28;20390;-66
2022/04/30 11:19:16;;;;;;;1.38;0.80;;;;;;;9.69;27.85;100059.59;4976846;28;20066;-66
2022/04/30 11:21:47;;;;;;;3.70;1.45;;;;;;;9.30;28.46;100066.59;4976819;28;20404;-67
2022/04/30 11:24:24;;;;;;;2.13;1.00;;;;;;;9.28;28.56;100057.78;4975802;28;20094;-67
2022/04/30 11:26:59;;;;;;;4.97;2.13;;;;;;;9.27;28.05;100058.88;4976794;28;20117;-66
2022/04/30 11:29:27;;;;;;;1.60;0.85;;;;;;;9.14;28.87;100070.84;4976691;28;20084;-66
2022/04/30 11:31:54;;;;;;;2.45;1.00;;;;;;;9.04;28.72;100064.69;4977082;28;20060;-67
2022/04/30 11:34:23;;;;;;;2.42;1.15;;;;;;;9.15;28.54;100071.69;4975214;28;20546;-66
2022/04/30 11:36:56;;;;;;;2.15;0.90;;;;;;;9.12;28.74;100069.53;4977048;28;20082;-67
2022/04/30 11:39:25;;;;;;;1.88;0.93;;;;;;;8.97;29.06;100059.56;4975113;28;20057;-70
2022/04/30 11:41:54;;;;;;;2.83;1.02;;;;;;;8.97;28.89;100065.09;4975151;28;20047;-71
2022/04/30 11:44:24;;;;;;;3.53;0.93;;;;;;;8.99;29.55;100065.63;4976484;28;20245;-66
2022/04/30 11:46:52;;;;;;;9.85;2.22;;;;;;;9.18;28.90;100069.09;4959266;28;20055;-66
2022/04/30 11:49:25;;;;;;;11.07;0.95;;;;;;;9.33;28.88;100060.41;4976336;28;20098;-66
2022/04/30 11:52:08;;;;;;;2.80;0.98;;;;;;;9.63;28.96;100061.69;4976433;28;20450;-67
2022/04/30 11:54:38;;;;;;;2.65;0.80;;;;;;;9.74;28.12;100059.50;4976082;28;20118;-67
2022/04/30 11:57:05;;;;;;;1.63;0.80;;;;;;;9.83;28.00;100063.16;4976352;28;20085;-68
2022/04/30 11:59:36;;;;;;;2.50;1.20;;;;;;;10.00;28.08;100057.69;4976601;28;20058;-67
2022/04/30 12:02:06;;;;;;;2.40;0.93;;;;;;;10.12;27.92;100060.75;4975725;28;20059;-67
2022/04/30 12:04:35;;;;;;;7.20;0.98;;;;;;;10.16;27.25;100048.69;4976031;28;20069;-66
2022/04/30 12:07:07;;;;;;;115.70;33.97;;;;;;;10.08;26.92;100056.97;4974980;28;20454;-65
2022/04/30 12:09:38;;;;;;;4.72;2.22;;;;;;;10.11;27.78;100048.00;4974648;28;20105;-65
2022/04/30 12:12:26;;;;;;;3.70;1.35;;;;;;;10.06;27.90;100054.50;4975613;28;20051;-65
2022/04/30 12:14:55;;;;;;;2.75;1.25;;;;;;;10.04;27.18;100053.19;4975580;28;20065;-65